createdAt,value
2023-01-11T00:00:04.000Z,5.82
2023-01-11T00:05:05.000Z,5.81
2023-01-11T00:10:04.000Z,5.79
2023-01-11T00:15:04.000Z,5.78
2023-01-11T00:20:04.000Z,5.78
2023-01-11T00:25:04.000Z,5.77
2023-01-11T00:30:04.000Z,5.75
2023-01-11T00:35:04.000Z,5.72
2023-01-11T00:40:04.000Z,5.74
2023-01-11T00:45:04.000Z,5.72
2023-01-11T00:50:04.000Z,5.72
2023-01-11T00:55:04.000Z,5.71
2023-01-11T01:00:05.000Z,5.72
2023-01-11T01:05:05.000Z,5.74
2023-01-11T01:10:05.000Z,5.74
2023-01-11T01:15:05.000Z,5.74
2023-01-11T01:20:05.000Z,5.76
2023-01-11T01:25:04.000Z,5.78
2023-01-11T01:30:05.000Z,5.79
2023-01-11T01:35:05.000Z,5.71
2023-01-11T01:40:05.000Z,5.66
2023-01-11T01:45:05.000Z,5.64
2023-01-11T01:50:04.000Z,5.60
2023-01-11T01:55:04.000Z,5.57
2023-01-11T02:00:05.000Z,5.57
2023-01-11T02:05:05.000Z,5.60
2023-01-11T02:10:04.000Z,5.57
2023-01-11T02:15:05.000Z,5.53
2023-01-11T02:20:05.000Z,5.52
2023-01-11T02:25:05.000Z,5.51
2023-01-11T02:30:04.000Z,5.51
2023-01-11T02:35:05.000Z,5.50
2023-01-11T02:40:04.000Z,5.49
2023-01-11T02:45:04.000Z,5.51
2023-01-11T02:50:04.000Z,5.50
2023-01-11T02:55:04.000Z,5.53
2023-01-11T03:00:04.000Z,5.55
2023-01-11T03:05:04.000Z,5.58
2023-01-11T03:10:04.000Z,5.60
2023-01-11T03:15:05.000Z,5.60
2023-01-11T03:20:05.000Z,5.60
2023-01-11T03:25:05.000Z,5.58
2023-01-11T03:30:05.000Z,5.57
2023-01-11T03:35:04.000Z,5.54
2023-01-11T03:40:05.000Z,5.56
2023-01-11T03:45:05.000Z,5.55
2023-01-11T03:50:05.000Z,5.52
2023-01-11T03:55:05.000Z,5.50
2023-01-11T04:00:05.000Z,5.49
2023-01-11T04:05:05.000Z,5.49
2023-01-11T04:10:05.000Z,5.47
2023-01-11T04:15:05.000Z,5.47
2023-01-11T04:20:05.000Z,5.49
2023-01-11T04:25:05.000Z,5.48
2023-01-11T04:30:05.000Z,5.49
2023-01-11T04:35:05.000Z,5.48
2023-01-11T04:40:05.000Z,5.51
2023-01-11T04:45:05.000Z,5.49
2023-01-11T04:50:05.000Z,5.51
2023-01-11T04:55:05.000Z,5.53
2023-01-11T05:00:05.000Z,5.53
2023-01-11T05:05:05.000Z,5.50
2023-01-11T05:10:05.000Z,5.46
2023-01-11T05:15:05.000Z,5.46
2023-01-11T05:20:05.000Z,5.47
2023-01-11T05:25:05.000Z,5.46
2023-01-11T05:30:05.000Z,5.48
2023-01-11T05:35:05.000Z,5.54
2023-01-11T05:40:05.000Z,5.57
2023-01-11T05:45:05.000Z,5.58
2023-01-11T05:50:05.000Z,5.58
2023-01-11T05:55:05.000Z,5.54
2023-01-11T06:00:05.000Z,5.56
2023-01-11T06:05:05.000Z,5.67
2023-01-11T06:10:05.000Z,5.77
2023-01-11T06:15:05.000Z,5.81
2023-01-11T06:20:05.000Z,5.83
2023-01-11T06:25:05.000Z,5.91
2023-01-11T06:30:05.000Z,5.94
2023-01-11T06:35:05.000Z,5.99
2023-01-11T06:40:05.000Z,6.05
2023-01-11T06:45:05.000Z,6.08
2023-01-11T06:50:05.000Z,6.08
2023-01-11T06:55:05.000Z,6.09
2023-01-11T07:00:06.000Z,6.13
2023-01-11T07:05:05.000Z,6.14
2023-01-11T07:10:05.000Z,6.15
2023-01-11T07:15:05.000Z,6.14
2023-01-11T07:20:05.000Z,6.15
2023-01-11T07:25:05.000Z,6.15
2023-01-11T07:30:05.000Z,6.13
2023-01-11T07:35:05.000Z,6.08
2023-01-11T07:40:05.000Z,6.07
2023-01-11T07:45:05.000Z,6.07
2023-01-11T07:50:05.000Z,6.07
2023-01-11T07:55:05.000Z,6.09
2023-01-11T08:00:05.000Z,6.14
2023-01-11T08:05:05.000Z,6.16
2023-01-11T08:10:05.000Z,6.22
2023-01-11T08:15:05.000Z,6.24
2023-01-11T08:20:05.000Z,6.27
2023-01-11T08:25:05.000Z,6.30
2023-01-11T08:30:05.000Z,6.34
2023-01-11T08:35:05.000Z,6.37
2023-01-11T08:40:05.000Z,6.41
2023-01-11T08:45:06.000Z,6.48
2023-01-11T08:50:05.000Z,6.56
2023-01-11T08:55:05.000Z,6.65
2023-01-11T09:00:06.000Z,6.72
2023-01-11T09:05:05.000Z,6.80
2023-01-11T09:10:05.000Z,6.86
2023-01-11T09:15:05.000Z,6.88
2023-01-11T09:20:05.000Z,6.90
2023-01-11T09:25:05.000Z,6.90
2023-01-11T09:30:05.000Z,6.91
2023-01-11T09:35:05.000Z,6.87
2023-01-11T09:40:05.000Z,6.86
2023-01-11T09:45:05.000Z,6.85
2023-01-11T09:50:05.000Z,6.84
2023-01-11T09:55:05.000Z,6.84
2023-01-11T10:00:05.000Z,6.84
2023-01-11T10:05:05.000Z,6.83
2023-01-11T10:18:35.000Z,6.83
2023-01-11T10:20:06.000Z,6.84
2023-01-11T10:25:05.000Z,6.80
2023-01-11T10:30:05.000Z,6.80
2023-01-11T10:35:05.000Z,6.78
2023-01-11T10:40:05.000Z,6.75
2023-01-11T10:45:05.000Z,6.74
2023-01-11T10:50:06.000Z,6.73
2023-01-11T10:55:05.000Z,6.75
2023-01-11T11:00:07.000Z,6.75
2023-01-11T11:05:05.000Z,6.72
2023-01-11T11:10:05.000Z,6.71
2023-01-11T11:15:05.000Z,6.69
2023-01-11T11:20:05.000Z,6.68
2023-01-11T11:25:05.000Z,6.70
2023-01-11T11:30:05.000Z,6.71
2023-01-11T11:35:05.000Z,6.72
2023-01-11T11:40:05.000Z,6.71
2023-01-11T11:45:05.000Z,6.73
2023-01-11T11:50:05.000Z,6.70
2023-01-11T11:55:05.000Z,6.69
2023-01-11T12:00:05.000Z,6.70
2023-01-11T12:05:05.000Z,6.69
2023-01-11T12:10:05.000Z,6.69
2023-01-11T12:15:06.000Z,6.69
2023-01-11T12:20:05.000Z,6.69
2023-01-11T12:25:06.000Z,6.70
2023-01-11T12:30:05.000Z,6.72
2023-01-11T12:35:06.000Z,6.72
2023-01-11T12:40:05.000Z,6.74
2023-01-11T12:45:06.000Z,6.74
2023-01-11T12:50:05.000Z,6.76
2023-01-11T12:55:06.000Z,6.78
2023-01-11T13:00:07.000Z,6.81
2023-01-11T13:05:05.000Z,6.84
2023-01-11T13:10:05.000Z,6.87
2023-01-11T13:15:06.000Z,6.89
2023-01-11T13:20:06.000Z,6.96
2023-01-11T13:25:06.000Z,7.00
2023-01-11T13:30:05.000Z,7.02
2023-01-11T13:35:05.000Z,7.02
2023-01-11T13:40:05.000Z,7.05
2023-01-11T13:45:06.000Z,7.08
2023-01-11T13:50:05.000Z,7.07
2023-01-11T13:55:05.000Z,7.10
2023-01-11T14:00:05.000Z,7.15
2023-01-11T14:05:05.000Z,7.16
2023-01-11T14:10:05.000Z,7.16
2023-01-11T14:15:05.000Z,7.16
2023-01-11T14:20:05.000Z,7.15
2023-01-11T14:25:05.000Z,7.17
2023-01-11T14:30:06.000Z,7.16
2023-01-11T14:35:05.000Z,7.17
2023-01-11T14:40:05.000Z,7.18
2023-01-11T14:45:06.000Z,7.19
2023-01-11T14:50:05.000Z,7.18
2023-01-11T14:55:05.000Z,7.18
2023-01-11T15:00:06.000Z,7.20
2023-01-11T15:05:05.000Z,7.22
2023-01-11T15:10:05.000Z,7.23
2023-01-11T15:15:06.000Z,7.24
2023-01-11T15:20:06.000Z,7.25
2023-01-11T15:25:05.000Z,7.29
2023-01-11T15:30:05.000Z,7.32
2023-01-11T15:35:05.000Z,7.34
2023-01-11T15:40:05.000Z,7.34
2023-01-11T15:45:05.000Z,7.37
2023-01-11T15:50:06.000Z,7.43
2023-01-11T15:55:05.000Z,7.45
2023-01-11T16:00:05.000Z,7.47
2023-01-11T16:05:05.000Z,7.48
2023-01-11T16:10:05.000Z,7.49
2023-01-11T16:15:05.000Z,7.50
2023-01-11T16:20:05.000Z,7.49
2023-01-11T16:25:06.000Z,7.48
2023-01-11T16:30:05.000Z,7.49
2023-01-11T16:35:05.000Z,7.49
2023-01-11T16:40:06.000Z,7.52
2023-01-11T16:45:05.000Z,7.54
2023-01-11T16:50:06.000Z,7.56
2023-01-11T16:55:05.000Z,7.55
2023-01-11T17:00:06.000Z,7.57
2023-01-11T17:05:05.000Z,7.61
2023-01-11T17:10:05.000Z,7.60
2023-01-11T17:15:06.000Z,7.71
2023-01-11T17:20:06.000Z,7.73
2023-01-11T17:25:05.000Z,7.46
2023-01-11T17:30:06.000Z,7.78
2023-01-11T17:35:05.000Z,7.77
2023-01-11T17:40:05.000Z,7.74
2023-01-11T17:45:05.000Z,7.49
2023-01-11T17:50:06.000Z,7.78
2023-01-11T17:55:05.000Z,7.78
2023-01-11T18:00:05.000Z,7.79
2023-01-11T18:05:06.000Z,7.81
2023-01-11T18:10:06.000Z,7.77
2023-01-11T18:15:06.000Z,7.64
2023-01-11T18:20:06.000Z,7.75
2023-01-11T18:25:06.000Z,7.72
2023-01-11T18:30:05.000Z,7.71
2023-01-11T18:35:05.000Z,7.70
2023-01-11T18:40:05.000Z,7.69
2023-01-11T18:45:05.000Z,7.65
2023-01-11T18:50:05.000Z,7.63
2023-01-11T18:55:06.000Z,7.60
2023-01-11T19:00:08.000Z,7.58
2023-01-11T19:05:06.000Z,7.55
2023-01-11T19:10:06.000Z,7.49
2023-01-11T19:15:06.000Z,7.44
2023-01-11T19:20:06.000Z,7.39
2023-01-11T19:25:06.000Z,7.34
2023-01-11T19:30:06.000Z,7.28
2023-01-11T19:35:06.000Z,7.29
2023-01-11T19:40:06.000Z,7.29
2023-01-11T19:45:06.000Z,7.25
2023-01-11T19:50:06.000Z,7.24
2023-01-11T19:55:05.000Z,7.25
2023-01-11T20:00:06.000Z,7.27
2023-01-11T20:05:06.000Z,7.26
2023-01-11T20:10:06.000Z,7.23
2023-01-11T20:15:06.000Z,7.19
2023-01-11T20:19:50.000Z,7.14
2023-01-11T20:25:06.000Z,7.07
2023-01-11T20:30:06.000Z,6.99
2023-01-11T20:34:51.000Z,6.89
2023-01-11T20:40:06.000Z,6.82
2023-01-11T20:44:51.000Z,6.73
2023-01-11T20:50:06.000Z,6.69
2023-01-11T20:55:06.000Z,6.60
2023-01-11T21:00:06.000Z,6.57
2023-01-11T21:05:06.000Z,6.57
2023-01-11T21:10:06.000Z,6.55
2023-01-11T21:15:06.000Z,6.57
2023-01-11T21:20:06.000Z,6.55
2023-01-11T21:25:06.000Z,6.53
2023-01-11T21:30:06.000Z,6.51
2023-01-11T21:35:06.000Z,6.46
2023-01-11T21:40:06.000Z,6.43
2023-01-11T21:45:05.000Z,6.36
2023-01-11T21:50:06.000Z,6.25
2023-01-11T21:55:06.000Z,6.11
2023-01-11T22:00:06.000Z,6.07
2023-01-11T22:05:06.000Z,6.06
2023-01-11T22:10:06.000Z,6.05
2023-01-11T22:15:06.000Z,6.06
2023-01-11T22:20:06.000Z,6.08
2023-01-11T22:25:06.000Z,6.05
2023-01-11T22:30:06.000Z,6.06
2023-01-11T22:35:06.000Z,6.04
2023-01-11T22:40:06.000Z,6.08
2023-01-11T22:45:06.000Z,6.08
2023-01-11T22:50:06.000Z,6.06
2023-01-11T22:55:06.000Z,5.97
2023-01-11T23:00:07.000Z,5.90
2023-01-11T23:05:06.000Z,5.83
2023-01-11T23:10:06.000Z,5.79
2023-01-11T23:15:06.000Z,5.74
2023-01-11T23:20:06.000Z,5.67
2023-01-11T23:25:06.000Z,5.65
2023-01-11T23:30:06.000Z,5.65
2023-01-11T23:35:06.000Z,5.63
2023-01-11T23:40:06.000Z,5.58
2023-01-11T23:45:06.000Z,5.51
2023-01-11T23:50:06.000Z,5.47
2023-01-11T23:55:06.000Z,5.47
